createdAt,value
2018-06-09T00:01:28.774Z,5.40
2018-06-09T00:03:57.034Z,5.50
2018-06-09T00:06:25.297Z,5.37
2018-06-09T00:08:53.582Z,5.27
2018-06-09T00:11:21.840Z,6.00
2018-06-09T00:13:50.105Z,5.83
2018-06-09T00:16:18.359Z,5.40
2018-06-09T00:18:46.656Z,5.07
2018-06-09T00:21:14.935Z,6.27
2018-06-09T00:23:43.267Z,6.30
2018-06-09T00:26:11.608Z,5.73
2018-06-09T00:28:39.877Z,6.30
2018-06-09T00:31:09.144Z,5.70
2018-06-09T00:33:37.432Z,6.00
2018-06-09T00:36:05.714Z,5.63
2018-06-09T00:38:34.021Z,5.60
2018-06-09T00:41:02.284Z,6.23
2018-06-09T00:43:30.558Z,6.23
2018-06-09T00:45:58.834Z,6.30
2018-06-09T00:48:27.071Z,5.83
2018-06-09T00:50:56.367Z,5.90
2018-06-09T00:53:24.615Z,6.10
2018-06-09T00:55:57.344Z,6.10
2018-06-09T00:58:25.583Z,6.03
2018-06-09T01:00:53.844Z,6.00
2018-06-09T01:03:22.143Z,6.43
2018-06-09T01:05:50.423Z,6.10
2018-06-09T01:11:01.879Z,6.77
2018-06-09T01:13:30.136Z,6.37
2018-06-09T01:15:58.496Z,6.47
2018-06-09T01:18:26.830Z,6.50
2018-06-09T01:20:55.105Z,6.97
2018-06-09T01:23:23.368Z,7.13
2018-06-09T01:25:51.651Z,6.67
2018-06-09T01:28:20.005Z,6.67
2018-06-09T01:30:48.274Z,6.80
2018-06-09T01:33:16.579Z,7.80
2018-06-09T01:35:44.866Z,6.60
2018-06-09T01:38:13.130Z,7.13
2018-06-09T01:40:41.453Z,7.30
2018-06-09T01:43:09.734Z,7.17
2018-06-09T01:45:37.999Z,6.70
2018-06-09T01:48:06.311Z,6.60
2018-06-09T01:50:34.564Z,6.73
2018-06-09T01:53:02.842Z,6.97
2018-06-09T01:55:31.066Z,7.23
2018-06-09T01:57:59.372Z,7.67
2018-06-09T02:00:27.688Z,8.10
2018-06-09T02:02:55.929Z,7.27
2018-06-09T02:05:24.196Z,7.33
2018-06-09T02:07:52.510Z,7.33
2018-06-09T02:10:20.767Z,7.23
2018-06-09T02:12:49.028Z,8.03
2018-06-09T02:15:17.662Z,7.33
2018-06-09T02:17:45.890Z,7.70
2018-06-09T02:20:14.168Z,7.70
2018-06-09T02:22:42.444Z,7.70
2018-06-09T02:25:10.738Z,8.60
2018-06-09T02:27:39.035Z,8.77
2018-06-09T02:30:07.264Z,8.77
2018-06-09T02:32:35.544Z,8.37
2018-06-09T02:35:03.819Z,8.70
2018-06-09T02:37:32.106Z,8.43
2018-06-09T02:40:00.419Z,8.80
2018-06-09T02:42:28.691Z,8.23
2018-06-09T02:44:56.939Z,8.10
2018-06-09T02:47:25.198Z,8.73
2018-06-09T02:49:53.454Z,8.23
2018-06-09T02:52:21.794Z,8.37
2018-06-09T02:54:52.284Z,8.30
2018-06-09T02:57:20.674Z,8.67
2018-06-09T02:59:48.943Z,8.90
2018-06-09T03:02:17.199Z,8.60
2018-06-09T03:04:45.518Z,9.10
2018-06-09T03:07:13.792Z,9.03
2018-06-09T03:09:42.065Z,8.53
2018-06-09T03:12:10.361Z,9.13
2018-06-09T03:14:38.585Z,8.83
2018-06-09T03:17:06.931Z,8.60
2018-06-09T03:19:35.182Z,7.57
2018-06-09T03:22:03.470Z,8.63
2018-06-09T03:24:31.755Z,8.00
2018-06-09T03:27:00.002Z,8.00
2018-06-09T03:29:28.251Z,8.10
2018-06-09T03:31:56.527Z,8.50
2018-06-09T03:34:24.804Z,8.20
2018-06-09T03:36:53.123Z,8.10
2018-06-09T03:39:21.392Z,7.70
2018-06-09T03:41:49.625Z,7.50
2018-06-09T03:44:17.908Z,7.67
2018-06-09T03:46:46.223Z,8.10
2018-06-09T03:49:14.483Z,7.80
2018-06-09T03:51:42.756Z,7.27
2018-06-09T03:54:11.083Z,7.20
2018-06-09T03:56:39.399Z,7.73
2018-06-09T03:59:07.686Z,7.90
2018-06-09T04:01:36.011Z,7.57
2018-06-09T04:04:04.295Z,6.97
2018-06-09T04:06:32.657Z,7.23
2018-06-09T04:09:07.919Z,6.73
2018-06-09T04:11:36.402Z,6.90
2018-06-09T04:14:04.783Z,7.07
2018-06-09T04:16:37.339Z,6.87
2018-06-09T04:19:05.693Z,6.67
2018-06-09T04:21:38.235Z,6.37
2018-06-09T04:24:07.106Z,6.67
2018-06-09T04:26:35.362Z,6.90
2018-06-09T04:29:03.702Z,6.73
2018-06-09T04:31:32.073Z,6.60
2018-06-09T04:34:00.509Z,6.77
2018-06-09T04:36:28.746Z,7.20
2018-06-09T04:38:59.818Z,6.23
2018-06-09T04:41:28.919Z,6.43
2018-06-09T04:43:57.195Z,6.43
2018-06-09T04:46:25.480Z,6.37
2018-06-09T04:48:53.764Z,6.03
2018-06-09T04:51:23.530Z,5.90
2018-06-09T04:53:51.837Z,6.47
2018-06-09T04:56:20.180Z,6.67
2018-06-09T04:58:48.454Z,6.53
2018-06-09T05:01:16.738Z,6.20
2018-06-09T05:03:44.989Z,6.80
2018-06-09T05:06:13.237Z,6.93
2018-06-09T05:08:41.503Z,6.30
2018-06-09T05:11:09.770Z,6.13
2018-06-09T05:13:38.042Z,6.43
2018-06-09T05:16:06.335Z,6.40
2018-06-09T05:18:35.560Z,6.17
2018-06-09T05:21:03.859Z,5.53
2018-06-09T05:23:32.137Z,6.13
2018-06-09T05:26:00.375Z,6.30
2018-06-09T05:28:28.704Z,6.07
2018-06-09T05:30:56.934Z,6.10
2018-06-09T05:33:25.255Z,6.10
2018-06-09T05:35:53.516Z,6.30
2018-06-09T05:38:21.739Z,6.33
2018-06-09T05:40:49.977Z,5.73
2018-06-09T05:43:18.243Z,5.60
2018-06-09T05:45:46.520Z,5.90
2018-06-09T05:48:14.759Z,6.53
2018-06-09T05:50:43.005Z,6.77
2018-06-09T05:53:11.242Z,6.10
2018-06-09T05:55:39.497Z,6.63
2018-06-09T05:58:07.755Z,7.10
2018-06-09T06:00:35.939Z,7.43
2018-06-09T06:03:04.145Z,7.13
2018-06-09T06:05:32.383Z,6.87
2018-06-09T06:08:00.769Z,7.37
2018-06-09T06:10:29.452Z,7.30
2018-06-09T06:12:57.625Z,7.33
2018-06-09T06:15:25.824Z,7.93
2018-06-09T06:17:53.992Z,8.27
2018-06-09T06:20:22.203Z,7.20
2018-06-09T06:22:50.520Z,7.23
2018-06-09T06:25:19.075Z,7.73
2018-06-09T06:27:47.248Z,6.67
2018-06-09T06:30:15.421Z,7.60
2018-06-09T06:32:43.632Z,6.90
2018-06-09T06:35:11.805Z,8.13
2018-06-09T06:37:40.025Z,7.70
2018-06-09T06:40:08.195Z,6.97
2018-06-09T06:42:36.396Z,7.10
2018-06-09T06:45:04.623Z,7.27
2018-06-09T06:47:32.801Z,7.13
2018-06-09T06:50:01.017Z,7.50
2018-06-09T06:52:29.234Z,6.90
2018-06-09T06:54:57.411Z,7.53
2018-06-09T06:57:25.629Z,6.90
2018-06-09T06:59:53.797Z,7.40
2018-06-09T07:02:22.671Z,8.07
2018-06-09T07:04:50.852Z,8.00
2018-06-09T07:07:19.262Z,7.77
2018-06-09T07:09:47.434Z,7.50
2018-06-09T07:12:15.798Z,8.33
2018-06-09T07:14:43.977Z,8.17
2018-06-09T07:17:12.192Z,8.30
2018-06-09T07:19:40.412Z,7.93
2018-06-09T07:22:08.641Z,8.20
2018-06-09T07:24:36.934Z,9.10
2018-06-09T07:27:05.134Z,8.53
2018-06-09T07:29:33.432Z,8.23
2018-06-09T07:32:02.128Z,8.47
2018-06-09T07:34:30.321Z,7.90
2018-06-09T07:36:58.487Z,7.80
2018-06-09T07:39:26.689Z,8.63
2018-06-09T07:41:54.994Z,7.47
2018-06-09T07:44:23.182Z,7.47
2018-06-09T07:46:51.479Z,7.50
2018-06-09T07:49:19.744Z,7.80
2018-06-09T07:51:47.948Z,8.03
2018-06-09T07:54:16.132Z,8.37
2018-06-09T07:56:45.007Z,8.03
2018-06-09T07:59:13.255Z,8.00
2018-06-09T08:02:07.889Z,7.83
2018-06-09T08:04:36.176Z,7.97
2018-06-09T08:07:04.565Z,7.73
2018-06-09T08:09:32.881Z,7.10
2018-06-09T08:12:01.093Z,8.10
2018-06-09T08:14:29.672Z,7.80
2018-06-09T08:16:57.972Z,8.10
2018-06-09T08:19:26.483Z,8.13
2018-06-09T08:21:54.694Z,7.77
2018-06-09T08:24:22.950Z,8.27
2018-06-09T08:26:51.239Z,7.70
2018-06-09T08:29:19.406Z,7.00
2018-06-09T08:31:47.610Z,7.63
2018-06-09T08:34:15.817Z,7.93
2018-06-09T08:36:44.010Z,7.90
2018-06-09T08:39:12.194Z,7.53
2018-06-09T08:41:40.393Z,7.40
2018-06-09T08:44:08.569Z,7.60
2018-06-09T08:46:36.766Z,8.00
2018-06-09T08:49:05.018Z,7.20
2018-06-09T08:51:33.248Z,7.17
2018-06-09T08:54:02.087Z,7.47
2018-06-09T08:56:30.329Z,7.63
2018-06-09T08:58:58.587Z,7.13
2018-06-09T09:01:27.021Z,7.07
2018-06-09T09:03:55.289Z,7.10
2018-06-09T09:06:23.557Z,7.20
2018-06-09T09:08:51.774Z,6.50
2018-06-09T09:11:20.337Z,7.17
2018-06-09T09:13:48.567Z,6.80
2018-06-09T09:16:16.769Z,6.50
2018-06-09T09:18:45.036Z,6.67
2018-06-09T09:21:13.228Z,6.53
2018-06-09T09:23:41.455Z,7.00
2018-06-09T09:26:09.684Z,6.80
2018-06-09T09:28:38.205Z,6.77
2018-06-09T09:31:06.419Z,6.20
2018-06-09T09:33:34.634Z,6.13
2018-06-09T09:36:02.854Z,6.47
2018-06-09T09:38:31.079Z,6.20
2018-06-09T09:40:59.284Z,6.33
2018-06-09T09:43:27.585Z,6.40
2018-06-09T09:45:55.835Z,6.33
2018-06-09T09:48:24.039Z,6.10
2018-06-09T09:50:52.271Z,6.42
2018-06-09T09:53:20.494Z,6.05
2018-06-09T09:55:48.702Z,5.67
2018-06-09T09:58:16.923Z,6.12
2018-06-09T10:00:45.171Z,5.72
2018-06-09T10:03:13.448Z,6.05
2018-06-09T10:05:41.667Z,5.83
2018-06-09T10:08:09.985Z,6.28
2018-06-09T10:10:38.234Z,5.62
2018-06-09T10:13:06.495Z,5.33
2018-06-09T10:15:34.743Z,5.50
2018-06-09T10:18:03.001Z,6.05
2018-06-09T10:20:31.266Z,5.55
2018-06-09T10:22:59.519Z,5.92
2018-06-09T10:25:28.289Z,6.55
2018-06-09T10:27:56.485Z,6.15
2018-06-09T10:30:24.695Z,5.72
2018-06-09T10:32:53.172Z,5.72
2018-06-09T10:35:21.337Z,5.53
2018-06-09T10:37:49.541Z,6.10
2018-06-09T10:40:17.720Z,5.20
2018-06-09T10:42:46.038Z,5.65
2018-06-09T10:45:14.307Z,5.30
2018-06-09T10:47:42.639Z,5.05
2018-06-09T10:50:10.952Z,5.45
2018-06-09T10:52:39.230Z,5.67
2018-06-09T10:55:07.547Z,5.65
2018-06-09T10:57:35.853Z,5.67
2018-06-09T11:00:04.384Z,5.60
2018-06-09T11:02:32.598Z,6.67
2018-06-09T11:05:00.823Z,6.08
2018-06-09T11:07:29.059Z,5.50
2018-06-09T11:09:57.337Z,5.50
2018-06-09T11:12:25.535Z,5.12
2018-06-09T11:14:53.730Z,4.70
2018-06-09T11:17:21.919Z,4.40
2018-06-09T11:19:50.135Z,4.10
2018-06-09T11:22:18.352Z,4.30
2018-06-09T11:24:46.570Z,4.22
2018-06-09T11:27:14.796Z,3.67
2018-06-09T11:29:43.066Z,3.90
2018-06-09T11:32:11.287Z,4.12
2018-06-09T11:34:39.554Z,3.77
2018-06-09T11:37:07.785Z,4.50
2018-06-09T11:39:35.986Z,4.35
2018-06-09T11:42:04.606Z,4.50
2018-06-09T11:44:32.827Z,4.75
2018-06-09T11:47:01.034Z,4.67
2018-06-09T11:49:29.261Z,4.97
2018-06-09T11:51:57.482Z,5.50
2018-06-09T11:54:25.682Z,5.33
2018-06-09T11:56:53.887Z,4.78
2018-06-09T11:59:22.118Z,5.22
2018-06-09T12:01:50.456Z,5.50
2018-06-09T12:04:18.662Z,5.87
2018-06-09T12:06:46.880Z,5.50
2018-06-09T12:09:15.095Z,6.00
2018-06-09T12:11:43.317Z,5.58
2018-06-09T12:14:11.511Z,6.08
2018-06-09T12:16:39.714Z,5.87
2018-06-09T12:19:07.936Z,6.00
2018-06-09T12:21:36.130Z,5.25
2018-06-09T12:24:04.332Z,6.25
2018-06-09T12:26:32.547Z,6.05
2018-06-09T12:29:00.791Z,5.95
2018-06-09T12:31:29.053Z,6.17
2018-06-09T12:33:57.293Z,6.92
2018-06-09T12:36:25.511Z,6.30
2018-06-09T12:38:53.727Z,5.95
2018-06-09T12:41:21.970Z,6.42
2018-06-09T12:43:50.178Z,6.40
2018-06-09T12:46:18.418Z,6.65
2018-06-09T12:48:46.703Z,6.60
2018-06-09T12:51:14.923Z,6.55
2018-06-09T12:53:43.131Z,6.90
2018-06-09T12:56:11.332Z,6.45
2018-06-09T12:58:39.598Z,6.40
2018-06-09T13:01:07.992Z,6.28
2018-06-09T13:03:36.246Z,5.97
2018-06-09T13:06:04.471Z,6.40
2018-06-09T13:08:32.721Z,6.45
2018-06-09T13:11:00.967Z,6.75
2018-06-09T13:13:29.183Z,6.45
2018-06-09T13:15:57.395Z,6.60
2018-06-09T13:18:25.608Z,6.60
2018-06-09T13:20:53.858Z,6.17
2018-06-09T13:23:22.082Z,6.42
2018-06-09T13:25:50.306Z,6.92
2018-06-09T13:28:18.522Z,6.60
2018-06-09T13:30:46.762Z,6.20
2018-06-09T13:33:15.035Z,6.37
2018-06-09T13:35:43.255Z,7.37
2018-06-09T13:38:11.564Z,6.92
2018-06-09T13:40:39.837Z,6.57
2018-06-09T13:43:08.079Z,7.45
2018-06-09T13:45:36.345Z,7.23
2018-06-09T13:48:04.565Z,6.65
2018-06-09T13:50:32.803Z,6.70
2018-06-09T13:53:01.081Z,7.10
2018-06-09T13:55:29.290Z,7.27
2018-06-09T13:57:57.563Z,7.17
2018-06-09T14:00:25.803Z,7.17
2018-06-09T14:02:54.079Z,6.72
2018-06-09T14:05:22.302Z,7.20
2018-06-09T14:07:50.535Z,6.37
2018-06-09T14:10:18.770Z,6.75
2018-06-09T14:12:47.006Z,6.45
2018-06-09T14:15:15.206Z,6.70
2018-06-09T14:17:43.516Z,5.85
2018-06-09T14:20:11.726Z,6.67
2018-06-09T14:22:39.914Z,9.70
2018-06-09T14:25:08.110Z,9.00
2018-06-09T14:27:36.316Z,10.03
2018-06-09T14:30:04.538Z,9.10
2018-06-09T14:32:32.730Z,9.37
2018-06-09T14:35:00.940Z,9.80
2018-06-09T14:37:29.123Z,8.97
2018-06-09T14:39:57.324Z,8.23
2018-06-09T14:42:25.530Z,8.10
2018-06-09T14:44:53.728Z,8.13
2018-06-09T14:47:21.923Z,7.93
2018-06-09T14:49:50.145Z,8.37
2018-06-09T14:52:18.338Z,9.10
2018-06-09T14:54:46.565Z,9.50
2018-06-09T14:57:14.815Z,8.13
2018-06-09T14:59:43.025Z,8.63
2018-06-09T15:02:11.291Z,8.27
2018-06-09T15:04:39.519Z,7.63
2018-06-09T15:07:07.752Z,7.73
2018-06-09T15:09:35.966Z,9.10
2018-06-09T15:12:04.193Z,12.10
2018-06-09T15:14:32.431Z,17.50
2018-06-09T15:17:00.627Z,8.10
2018-06-09T15:19:28.887Z,14.10
2018-06-09T15:21:57.122Z,9.47
2018-06-09T15:24:25.298Z,7.93
2018-06-09T15:26:53.485Z,8.60
2018-06-09T15:29:21.674Z,11.77
2018-06-09T15:31:49.910Z,8.57
2018-06-09T15:34:18.098Z,9.07
2018-06-09T15:36:46.291Z,7.60
2018-06-09T15:39:14.471Z,6.57
2018-06-09T15:41:42.677Z,6.53
2018-06-09T15:44:10.886Z,6.20
2018-06-09T15:46:39.150Z,6.03
2018-06-09T15:49:07.428Z,5.77
2018-06-09T15:51:35.613Z,6.40
2018-06-09T15:54:03.939Z,6.13
2018-06-09T15:56:32.207Z,5.70
2018-06-09T15:59:00.402Z,5.77
2018-06-09T16:01:28.589Z,5.70
2018-06-09T16:03:56.777Z,5.37
2018-06-09T16:06:24.950Z,5.37
2018-06-09T16:08:53.220Z,5.10
2018-06-09T16:11:21.418Z,5.40
2018-06-09T16:13:50.232Z,5.57
2018-06-09T16:16:18.406Z,5.27
2018-06-09T16:18:47.207Z,5.57
2018-06-09T16:21:15.482Z,6.60
2018-06-09T16:23:43.650Z,6.57
2018-06-09T16:26:11.850Z,6.80
2018-06-09T16:28:40.035Z,6.27
2018-06-09T16:31:08.246Z,7.60
2018-06-09T16:33:36.452Z,9.67
2018-06-09T16:36:04.653Z,6.80
2018-06-09T16:38:33.027Z,5.70
2018-06-09T16:41:01.218Z,6.27
2018-06-09T16:43:29.431Z,6.47
2018-06-09T16:45:57.638Z,7.20
2018-06-09T16:48:25.838Z,6.63
2018-06-09T16:50:54.079Z,6.10
2018-06-09T16:53:22.282Z,6.33
2018-06-09T16:55:50.524Z,5.43
2018-06-09T16:58:18.764Z,5.83
2018-06-09T17:00:47.091Z,6.00
2018-06-09T17:03:15.278Z,6.40
2018-06-09T17:05:43.467Z,6.27
2018-06-09T17:08:11.660Z,6.17
2018-06-09T17:10:39.837Z,6.83
2018-06-09T17:13:08.021Z,6.63
2018-06-09T17:15:36.326Z,6.70
2018-06-09T17:18:04.706Z,7.00
2018-06-09T17:20:33.210Z,7.40
2018-06-09T17:23:01.451Z,7.80
2018-06-09T17:25:29.681Z,10.40
2018-06-09T17:27:57.893Z,9.30
2018-06-09T17:30:26.152Z,8.33
2018-06-09T17:32:54.408Z,8.20
2018-06-09T17:35:22.647Z,8.27
2018-06-09T17:37:50.872Z,8.47
2018-06-09T17:40:19.074Z,7.70
2018-06-09T17:42:47.276Z,7.80
2018-06-09T17:45:15.494Z,6.97
2018-06-09T17:47:43.689Z,6.83
2018-06-09T17:50:12.055Z,9.00
2018-06-09T17:52:40.271Z,7.50
2018-06-09T17:55:08.501Z,7.60
2018-06-09T17:57:36.708Z,9.73
2018-06-09T18:00:05.007Z,9.63
2018-06-09T18:02:33.346Z,10.93
2018-06-09T18:05:01.563Z,11.33
2018-06-09T18:07:29.820Z,11.83
2018-06-09T18:09:58.059Z,11.30
2018-06-09T18:12:26.350Z,12.10
2018-06-09T18:14:54.565Z,11.93
2018-06-09T18:17:22.776Z,10.87
2018-06-09T18:19:51.094Z,11.37
2018-06-09T18:22:19.294Z,11.07
2018-06-09T18:24:47.517Z,11.10
2018-06-09T18:27:15.702Z,11.13
2018-06-09T18:29:43.912Z,11.93
2018-06-09T18:32:12.136Z,11.57
2018-06-09T18:34:40.400Z,11.10
2018-06-09T18:37:08.696Z,10.63
2018-06-09T18:39:36.996Z,10.87
2018-06-09T18:42:05.259Z,11.00
2018-06-09T18:44:33.573Z,11.07
2018-06-09T18:47:02.871Z,11.13
2018-06-09T18:49:31.089Z,11.87
2018-06-09T18:51:59.282Z,10.07
2018-06-09T18:54:27.600Z,11.13
2018-06-09T18:56:55.839Z,11.07
2018-06-09T18:59:24.139Z,12.23
2018-06-09T19:01:52.340Z,11.83
2018-06-09T19:04:20.555Z,11.70
2018-06-09T19:06:48.782Z,12.17
2018-06-09T19:09:16.994Z,12.07
2018-06-09T19:11:45.783Z,12.03
2018-06-09T19:14:13.987Z,12.73
2018-06-09T19:16:42.269Z,12.70
2018-06-09T19:19:10.501Z,12.70
2018-06-09T19:21:38.715Z,13.20
2018-06-09T19:26:41.551Z,13.53
2018-06-09T19:29:09.769Z,13.50
2018-06-09T19:31:38.044Z,13.10
2018-06-09T19:34:06.314Z,12.97
2018-06-09T19:36:34.556Z,13.10
2018-06-09T19:39:02.846Z,12.93
2018-06-09T19:41:31.118Z,13.63
2018-06-09T19:43:59.419Z,14.10
2018-06-09T19:46:27.753Z,13.23
2018-06-09T19:48:55.949Z,12.33
2018-06-09T19:51:24.213Z,13.30
2018-06-09T19:53:52.402Z,13.20
2018-06-09T19:56:20.585Z,13.20
2018-06-09T19:58:48.814Z,13.20
2018-06-09T20:01:16.981Z,13.93
2018-06-09T20:03:45.222Z,13.70
2018-06-09T20:06:13.453Z,13.10
2018-06-09T20:08:41.669Z,12.77
2018-06-09T20:11:09.865Z,12.60
2018-06-09T20:13:38.101Z,13.87
2018-06-09T20:16:06.362Z,13.17
2018-06-09T20:18:34.570Z,12.70
2018-06-09T20:21:02.752Z,14.30
2018-06-09T20:23:30.960Z,14.00
2018-06-09T20:26:00.190Z,15.13
2018-06-09T20:28:28.492Z,14.20
2018-06-09T20:30:56.765Z,14.80
2018-06-09T20:33:24.948Z,13.93
2018-06-09T20:35:53.238Z,14.23
2018-06-09T20:38:21.567Z,14.90
2018-06-09T20:40:50.035Z,14.83
2018-06-09T20:43:18.424Z,16.03
2018-06-09T20:45:46.647Z,14.50
2018-06-09T20:48:14.975Z,14.00
2018-06-09T20:50:43.297Z,13.97
2018-06-09T20:53:11.545Z,14.73
2018-06-09T20:55:39.888Z,13.97
2018-06-09T20:58:08.121Z,14.37
2018-06-09T21:00:36.317Z,14.20
2018-06-09T21:03:04.524Z,14.67
2018-06-09T21:05:32.809Z,14.23
2018-06-09T21:08:01.148Z,14.90
2018-06-09T21:10:29.474Z,15.03
2018-06-09T21:12:57.693Z,15.53
2018-06-09T21:15:25.939Z,15.17
2018-06-09T21:17:54.268Z,16.13
2018-06-09T21:20:22.480Z,15.63
2018-06-09T21:22:50.648Z,15.93
2018-06-09T21:25:18.877Z,15.93
2018-06-09T21:27:52.558Z,15.23
2018-06-09T21:30:26.312Z,15.37
2018-06-09T21:33:00.118Z,16.67
2018-06-09T21:35:57.585Z,16.23
2018-06-09T21:38:27.694Z,17.20
2018-06-09T21:41:01.971Z,16.70
2018-06-09T21:43:34.722Z,18.30
2018-06-09T21:46:05.527Z,19.27
2018-06-09T21:48:33.756Z,17.97
2018-06-09T21:51:02.037Z,19.00
2018-06-09T21:53:30.267Z,19.57
2018-06-09T21:55:58.513Z,19.67
2018-06-09T21:58:26.685Z,20.17
2018-06-09T22:00:54.917Z,18.97
2018-06-09T22:03:23.104Z,19.60
2018-06-09T22:05:51.418Z,19.43
2018-06-09T22:08:19.595Z,19.03
2018-06-09T22:10:48.131Z,20.33
2018-06-09T22:13:16.485Z,19.33
2018-06-09T22:15:44.802Z,20.07
2018-06-09T22:18:13.034Z,20.10
2018-06-09T22:20:41.241Z,20.43
2018-06-09T22:23:09.513Z,19.90
2018-06-09T22:25:43.309Z,19.33
2018-06-09T22:28:11.483Z,19.93
2018-06-09T22:30:39.729Z,19.50
2018-06-09T22:33:07.929Z,18.90
2018-06-09T22:35:36.142Z,20.20
2018-06-09T22:38:04.539Z,20.10
2018-06-09T22:40:32.721Z,19.67
2018-06-09T22:43:00.915Z,19.90
2018-06-09T22:45:29.281Z,19.57
2018-06-09T22:47:57.472Z,18.70
2018-06-09T22:50:25.647Z,20.37
2018-06-09T22:52:53.965Z,18.73
2018-06-09T22:55:22.288Z,18.07
2018-06-09T22:57:50.514Z,18.87
2018-06-09T23:00:50.958Z,17.97
2018-06-09T23:03:19.503Z,18.47
2018-06-09T23:05:47.798Z,20.23
2018-06-09T23:08:16.056Z,20.83
2018-06-09T23:10:44.624Z,19.70
2018-06-09T23:13:12.808Z,19.27
2018-06-09T23:15:40.994Z,20.00
2018-06-09T23:18:09.183Z,19.00
2018-06-09T23:20:37.376Z,18.90
2018-06-09T23:23:05.706Z,19.70
2018-06-09T23:25:33.896Z,21.03
2018-06-09T23:28:02.152Z,20.33
2018-06-09T23:30:30.361Z,21.47
2018-06-09T23:32:58.555Z,19.63
2018-06-09T23:35:26.786Z,19.27
2018-06-09T23:37:55.004Z,20.63
2018-06-09T23:40:29.712Z,19.63
2018-06-09T23:42:57.912Z,22.93
2018-06-09T23:45:26.126Z,22.40
2018-06-09T23:47:54.319Z,23.97
2018-06-09T23:50:22.505Z,23.43
2018-06-09T23:52:50.784Z,23.63
2018-06-09T23:55:19.008Z,23.20
2018-06-09T23:57:47.291Z,23.60
